createdAt,value
2022-10-26T00:03:09.436Z,9.50
2022-10-26T00:08:13.976Z,10.90
2022-10-26T00:13:17.182Z,11.40
2022-10-26T00:18:20.390Z,11.90
2022-10-26T00:23:23.601Z,13.10
2022-10-26T00:28:27.630Z,11.60
2022-10-26T00:33:31.459Z,11.60
2022-10-26T00:38:34.638Z,12.40
2022-10-26T00:43:40.940Z,12.50
2022-10-26T00:48:55.924Z,12.90
2022-10-26T00:54:02.922Z,14.20
2022-10-26T00:59:09.971Z,14.90
2022-10-26T01:04:14.809Z,14.70
2022-10-26T01:09:19.404Z,15.10
2022-10-26T01:14:23.917Z,15.20
2022-10-26T01:20:05.885Z,17.80
2022-10-26T01:25:17.979Z,17.60
2022-10-26T01:30:28.255Z,13.50
2022-10-26T01:35:56.752Z,19.40
2022-10-26T01:41:24.128Z,25.50
2022-10-26T01:46:32.051Z,15.80
2022-10-26T01:51:36.484Z,15.90
2022-10-26T01:56:42.435Z,15.40
2022-10-26T02:02:05.838Z,14.60
2022-10-26T02:07:15.706Z,14.50
2022-10-26T02:12:52.909Z,15.40
2022-10-26T02:18:14.241Z,15.50
2022-10-26T02:23:19.601Z,14.70
2022-10-26T02:28:32.333Z,15.60
2022-10-26T02:33:40.692Z,15.10
2022-10-26T02:38:46.940Z,14.80
2022-10-26T02:44:08.480Z,15.10
2022-10-26T02:49:11.789Z,17.50
2022-10-26T02:54:20.223Z,14.50
2022-10-26T02:59:26.601Z,20.30
2022-10-26T03:04:32.064Z,30.00
2022-10-26T03:09:35.378Z,33.80
2022-10-26T03:14:38.583Z,22.30
2022-10-26T03:19:41.791Z,20.40
2022-10-26T03:24:45.001Z,16.90
2022-10-26T03:29:48.311Z,18.80
2022-10-26T03:34:51.624Z,14.50
2022-10-26T03:39:54.831Z,20.50
2022-10-26T03:44:58.043Z,20.40
2022-10-26T03:50:01.301Z,23.80
2022-10-26T03:55:05.731Z,27.40
2022-10-26T04:05:13.329Z,18.50
2022-10-26T04:10:16.742Z,15.20
2022-10-26T04:15:21.079Z,15.00
2022-10-26T04:20:25.108Z,11.40
2022-10-26T04:25:32.664Z,11.00
2022-10-26T04:30:37.461Z,9.00
2022-10-26T04:35:40.774Z,9.50
2022-10-26T04:40:44.086Z,9.70
2022-10-26T04:45:47.598Z,6.80
2022-10-26T04:50:51.012Z,10.20
2022-10-26T04:55:58.816Z,8.60
2022-10-26T05:01:03.230Z,8.70
2022-10-26T05:06:06.989Z,11.40
2022-10-26T05:11:10.299Z,10.80
2022-10-26T05:16:15.617Z,10.80
2022-10-26T05:21:21.730Z,11.50
2022-10-26T05:26:25.144Z,10.10
2022-10-26T05:31:28.354Z,13.30
2022-10-26T05:36:32.484Z,11.70
2022-10-26T05:41:35.692Z,18.90
2022-10-26T05:46:39.215Z,19.90
2022-10-26T05:51:42.526Z,25.00
2022-10-26T05:56:46.136Z,32.00
2022-10-26T06:02:02.029Z,28.00
2022-10-26T06:07:17.120Z,14.40
2022-10-26T06:12:20.847Z,11.10
2022-10-26T06:17:38.187Z,9.10
2022-10-26T06:23:07.994Z,10.50
2022-10-26T06:28:47.412Z,11.30
2022-10-26T06:34:00.311Z,10.20
2022-10-26T06:39:08.070Z,11.60
2022-10-26T06:44:21.281Z,11.50
2022-10-26T06:49:41.683Z,10.40
2022-10-26T06:54:52.342Z,13.80
2022-10-26T07:00:08.578Z,15.40
2022-10-26T07:05:13.251Z,19.30
2022-10-26T07:10:16.890Z,15.90
2022-10-26T07:15:20.254Z,19.30
2022-10-26T07:20:23.461Z,18.60
2022-10-26T07:25:26.977Z,22.40
2022-10-26T07:30:31.275Z,23.60
2022-10-26T07:40:38.451Z,22.20
2022-10-26T07:45:41.651Z,30.30
2022-10-26T07:50:45.376Z,17.60
2022-10-26T07:55:58.308Z,22.60
2022-10-26T08:01:13.286Z,12.90
2022-10-26T08:06:16.603Z,15.20
2022-10-26T08:11:19.914Z,16.10
2022-10-26T08:16:24.000Z,16.40
2022-10-26T08:26:43.570Z,13.70
2022-10-26T08:31:48.323Z,12.30
2022-10-26T08:36:51.524Z,8.30
2022-10-26T08:42:21.865Z,8.50
2022-10-26T08:47:36.037Z,6.80
2022-10-26T08:57:50.445Z,6.10
2022-10-26T09:02:54.667Z,7.60
2022-10-26T09:08:17.952Z,9.70
2022-10-26T09:13:50.236Z,18.00
2022-10-26T09:19:03.491Z,10.00
2022-10-26T09:24:15.701Z,9.00
2022-10-26T09:29:21.351Z,6.60
2022-10-26T09:34:48.334Z,7.20
2022-10-26T09:40:19.187Z,11.30
2022-10-26T09:45:35.239Z,14.60
2022-10-26T09:50:40.862Z,8.00
2022-10-26T09:55:47.035Z,15.50
2022-10-26T10:00:52.401Z,10.60
2022-10-26T10:06:19.460Z,5.60
2022-10-26T10:11:22.572Z,11.50
2022-10-26T10:16:25.996Z,9.00
2022-10-26T10:21:39.639Z,8.30
2022-10-26T10:27:16.842Z,10.00
2022-10-26T10:32:26.715Z,19.70
2022-10-26T10:37:42.513Z,13.90
2022-10-26T10:42:48.090Z,11.00
2022-10-26T10:48:13.608Z,8.00
2022-10-26T10:53:31.048Z,12.60
2022-10-26T10:58:59.449Z,8.00
2022-10-26T11:04:02.693Z,15.30
2022-10-26T11:09:13.875Z,13.20
2022-10-26T11:14:33.243Z,10.70
2022-10-26T11:19:45.460Z,9.30
2022-10-26T11:25:19.284Z,8.70
2022-10-26T11:30:27.921Z,12.40
2022-10-26T11:35:51.305Z,9.20
2022-10-26T11:41:12.330Z,11.50
2022-10-26T11:46:21.475Z,10.30
2022-10-26T11:51:40.048Z,7.80
2022-10-26T11:56:55.350Z,11.90
2022-10-26T12:02:21.584Z,13.70
2022-10-26T12:07:31.587Z,11.00
2022-10-26T12:12:46.638Z,16.70
2022-10-26T12:18:50.423Z,16.40
2022-10-26T12:24:22.453Z,14.30
2022-10-26T12:29:38.768Z,12.60
2022-10-26T12:34:59.121Z,17.00
2022-10-26T12:40:33.319Z,20.30
2022-10-26T12:45:36.521Z,17.50
2022-10-26T12:50:39.729Z,16.80
2022-10-26T12:55:46.009Z,12.70
2022-10-26T13:01:08.194Z,15.00
2022-10-26T13:06:28.781Z,15.10
2022-10-26T13:11:45.811Z,12.90
2022-10-26T13:16:50.172Z,11.80
2022-10-26T13:21:54.074Z,15.00
2022-10-26T13:27:06.396Z,15.20
2022-10-26T13:32:09.807Z,26.90
2022-10-26T13:37:21.822Z,23.40
2022-10-26T13:42:28.559Z,20.90
2022-10-26T13:47:37.147Z,25.70
2022-10-26T13:52:44.938Z,23.50
2022-10-26T13:58:06.195Z,17.60
2022-10-26T14:03:14.831Z,14.90
2022-10-26T14:08:20.438Z,12.50
2022-10-26T14:13:26.702Z,16.00
2022-10-26T14:18:31.726Z,13.10
2022-10-26T14:23:36.061Z,11.60
2022-10-26T14:28:46.538Z,13.30
2022-10-26T14:33:50.262Z,15.30
2022-10-26T14:38:59.123Z,13.80
2022-10-26T14:44:03.332Z,13.20
2022-10-26T14:49:06.646Z,12.00
2022-10-26T14:54:24.977Z,12.20
2022-10-26T14:59:31.574Z,12.10
2022-10-26T15:04:41.049Z,12.50
2022-10-26T15:09:56.240Z,13.30
2022-10-26T15:15:23.912Z,14.30
2022-10-26T15:20:29.590Z,11.80
2022-10-26T15:25:35.048Z,14.40
2022-10-26T15:30:38.256Z,12.30
2022-10-26T15:35:41.679Z,14.30
2022-10-26T15:40:44.984Z,15.30
2022-10-26T15:45:48.294Z,14.80
2022-10-26T15:50:51.606Z,16.10
2022-10-26T15:55:57.122Z,13.90
2022-10-26T16:01:00.320Z,15.70
2022-10-26T16:06:04.207Z,15.60
2022-10-26T16:11:07.610Z,16.90
2022-10-26T16:16:16.245Z,17.40
2022-10-26T16:21:21.193Z,18.50
2022-10-26T16:26:24.921Z,17.00
2022-10-26T16:31:28.228Z,18.30
2022-10-26T16:36:35.018Z,16.90
2022-10-26T16:41:38.226Z,21.00
2022-10-26T16:46:41.436Z,20.00
2022-10-26T16:51:44.643Z,17.90
2022-10-26T16:56:47.819Z,17.40
2022-10-26T17:01:51.073Z,18.60
2022-10-26T17:06:54.472Z,14.00
2022-10-26T17:12:01.783Z,17.40
2022-10-26T17:17:05.499Z,19.00
2022-10-26T17:22:08.926Z,20.50
2022-10-26T17:27:12.324Z,18.20
2022-10-26T17:32:16.491Z,22.90
2022-10-26T17:42:22.974Z,18.50
2022-10-26T17:47:26.181Z,19.40
2022-10-26T17:52:29.290Z,17.80
2022-10-26T17:57:33.519Z,20.40
2022-10-26T18:07:41.062Z,20.80
2022-10-26T18:12:44.375Z,21.00
2022-10-26T18:17:50.962Z,21.00
2022-10-26T18:22:54.068Z,20.90
2022-10-26T18:27:57.584Z,21.40
2022-10-26T18:33:01.200Z,18.90
2022-10-26T18:38:04.408Z,14.90
2022-10-26T18:43:07.619Z,19.30
2022-10-26T18:48:10.767Z,21.20
2022-10-26T18:53:15.727Z,20.70
2022-10-26T18:58:19.189Z,21.40
2022-10-26T19:03:22.499Z,20.80
2022-10-26T19:08:27.933Z,20.40
2022-10-26T19:13:31.990Z,22.40
2022-10-26T19:18:35.505Z,18.80
2022-10-26T19:23:41.789Z,18.20
2022-10-26T19:28:45.504Z,19.00
2022-10-26T19:33:48.715Z,13.90
2022-10-26T19:38:51.921Z,18.30
2022-10-26T19:43:56.413Z,19.60
2022-10-26T19:49:02.451Z,18.30
2022-10-26T19:54:07.388Z,19.30
2022-10-26T19:59:11.413Z,19.40
2022-10-26T20:04:14.620Z,18.90
2022-10-26T20:09:19.176Z,18.20
2022-10-26T20:14:22.472Z,19.40
2022-10-26T20:19:25.678Z,19.60
2022-10-26T20:24:28.888Z,20.30
2022-10-26T20:29:31.993Z,18.20
2022-10-26T20:34:35.204Z,19.30
2022-10-26T20:39:38.925Z,19.80
2022-10-26T20:44:43.770Z,24.10
2022-10-26T20:49:47.488Z,20.40
2022-10-26T20:55:03.807Z,23.70
2022-10-26T21:00:10.867Z,23.70
2022-10-26T21:05:14.437Z,24.30
2022-10-26T21:10:17.628Z,24.20
2022-10-26T21:15:20.941Z,24.60
2022-10-26T21:20:24.149Z,23.60
2022-10-26T21:25:27.670Z,24.70
2022-10-26T21:30:30.871Z,23.70
2022-10-26T21:35:34.079Z,25.10
2022-10-26T21:40:37.289Z,22.70
2022-10-26T21:45:40.599Z,24.40
2022-10-26T21:50:43.808Z,23.50
2022-10-26T21:55:47.119Z,23.90
2022-10-26T22:00:50.291Z,25.00
2022-10-26T22:05:53.750Z,26.30
2022-10-26T22:10:57.467Z,26.10
2022-10-26T22:16:06.506Z,28.00
2022-10-26T22:21:10.959Z,28.30
2022-10-26T22:26:20.302Z,26.90
2022-10-26T22:41:42.114Z,26.90
2022-10-26T22:46:45.529Z,25.60
2022-10-26T22:51:48.836Z,27.10
2022-10-26T22:56:52.251Z,26.50
2022-10-26T23:01:55.788Z,28.50
2022-10-26T23:06:59.285Z,26.50
2022-10-26T23:12:02.695Z,26.60
2022-10-26T23:17:07.336Z,24.00
2022-10-26T23:22:10.648Z,33.20
2022-10-26T23:27:14.061Z,36.00
2022-10-26T23:32:17.624Z,37.20
2022-10-26T23:37:20.988Z,41.00
2022-10-26T23:42:24.301Z,40.30
2022-10-26T23:47:27.714Z,45.30
2022-10-26T23:52:31.025Z,38.70
2022-10-26T23:57:34.439Z,38.90
